Terminal Aerodrome Forecast
Issued by NWS Brownsville, TX

Home | Current Version | Previous Version | Text Only | Print | Product List | Glossary On
Versions: 1 2 3 4 5 6 7 8 9 10 11 12 13 14 15 16 17 18 19 20 21 22 23
000
FTUS44 KBRO 011657 AAE
TAFBRO
TAF AMD
KBRO 011657Z 0117/0212 17013G20KT P6SM -RA FEW035 SCT045 BKN070
     FM011800 13015KT P6SM VCSH SCT030 BKN040 BKN150
     FM020100 13009KT P6SM SCT040 BKN150=

USA.gov is the U.S. government's official web portal to all federal, state and local government web resources and services.